createdAt,value
2018-04-01T00:00:23.872Z,6.7
2018-04-01T00:00:50.008Z,6.7
2018-04-01T00:01:16.145Z,6.56
2018-04-01T00:01:42.304Z,6.54
2018-04-01T00:02:08.421Z,6.6
2018-04-01T00:02:34.564Z,6.6
2018-04-01T00:03:00.716Z,6.57
2018-04-01T00:03:26.850Z,6.46
2018-04-01T00:03:53.006Z,6.45
2018-04-01T00:04:19.170Z,6.36
2018-04-01T00:04:45.300Z,6.39
2018-04-01T00:05:11.498Z,6.36
2018-04-01T00:05:37.642Z,6.31
2018-04-01T00:06:03.802Z,6.24
2018-04-01T00:06:29.947Z,6.28
2018-04-01T00:06:56.133Z,6.22
2018-04-01T00:07:22.280Z,6.26
2018-04-01T00:07:48.442Z,6.26
2018-04-01T00:08:14.598Z,6.27
2018-04-01T00:08:40.762Z,6.2
2018-04-01T00:09:06.934Z,6.24
2018-04-01T00:09:33.074Z,6.2
2018-04-01T00:09:59.196Z,6.12
2018-04-01T00:10:25.371Z,6.2
2018-04-01T00:10:51.518Z,6.16
2018-04-01T00:11:17.677Z,6.05
2018-04-01T00:11:43.804Z,6.12
2018-04-01T00:12:09.942Z,6.04
2018-04-01T00:12:36.088Z,6.05
2018-04-01T00:13:02.243Z,6.05
2018-04-01T00:13:28.356Z,6.07
2018-04-01T00:13:54.522Z,6.08
2018-04-01T00:14:20.685Z,6.09
2018-04-01T00:14:46.843Z,6.14
2018-04-01T00:15:12.964Z,6.27
2018-04-01T00:15:39.167Z,6.26
2018-04-01T00:16:05.322Z,6.3
2018-04-01T00:16:31.516Z,6.35
2018-04-01T00:16:57.644Z,6.36
2018-04-01T00:17:23.788Z,6.24
2018-04-01T00:17:49.933Z,6.28
2018-04-01T00:18:16.072Z,6.3
2018-04-01T00:18:42.211Z,6.16
2018-04-01T00:19:08.352Z,6.11
2018-04-01T00:19:34.493Z,6.09
2018-04-01T00:20:00.640Z,6.02
2018-04-01T00:20:26.777Z,6.04
2018-04-01T00:20:53.123Z,6.11
2018-04-01T00:21:19.261Z,6.05
2018-04-01T00:21:45.410Z,6.11
2018-04-01T00:22:11.529Z,6.09
2018-04-01T00:22:37.679Z,6.11
2018-04-01T00:23:03.834Z,6.24
2018-04-01T00:23:30.020Z,6.26
2018-04-01T00:23:56.160Z,6.3
2018-04-01T00:24:22.308Z,6.42
2018-04-01T00:24:48.437Z,6.44
2018-04-01T00:25:14.579Z,6.3
2018-04-01T00:25:40.714Z,6.38
2018-04-01T00:26:06.854Z,6.31
2018-04-01T00:26:33.000Z,6.27
2018-04-01T00:26:59.164Z,6.31
2018-04-01T00:27:25.304Z,6.41
2018-04-01T00:27:51.481Z,6.48
2018-04-01T00:28:17.621Z,6.57
2018-04-01T00:28:43.752Z,6.54
2018-04-01T00:29:09.923Z,6.6
2018-04-01T00:29:36.052Z,6.6
2018-04-01T00:30:02.193Z,6.62
2018-04-01T00:30:28.347Z,6.57
2018-04-01T00:30:54.508Z,6.6
2018-04-01T00:31:20.688Z,6.57
2018-04-01T00:31:46.819Z,6.59
2018-04-01T00:32:13.007Z,6.69
2018-04-01T00:32:39.182Z,6.72
2018-04-01T00:33:05.326Z,6.72
2018-04-01T00:33:31.500Z,6.66
2018-04-01T00:33:57.711Z,6.64
2018-04-01T00:34:23.792Z,6.59
2018-04-01T00:34:49.974Z,6.62
2018-04-01T00:35:16.132Z,6.6
2018-04-01T00:35:42.304Z,6.59
2018-04-01T00:36:08.514Z,6.57
2018-04-01T00:36:34.706Z,6.62
2018-04-01T00:37:00.878Z,6.7
2018-04-01T00:37:27.042Z,6.77
2018-04-01T00:37:53.180Z,6.63
2018-04-01T00:38:19.326Z,6.64
2018-04-01T00:38:45.540Z,6.64
2018-04-01T00:39:11.691Z,6.69
2018-04-01T00:39:37.849Z,6.6
2018-04-01T00:40:04.005Z,6.74
2018-04-01T00:40:30.197Z,6.74
2018-04-01T00:40:56.327Z,6.75
2018-04-01T00:41:22.515Z,6.82
2018-04-01T00:41:48.656Z,6.79
2018-04-01T00:42:14.833Z,6.81
2018-04-01T00:42:40.994Z,6.85
2018-04-01T00:43:07.141Z,6.81
2018-04-01T00:43:33.301Z,6.99
2018-04-01T00:43:59.466Z,7
2018-04-01T00:44:25.646Z,6.97
2018-04-01T00:44:51.808Z,6.95
2018-04-01T00:45:18.009Z,6.97
2018-04-01T00:45:44.187Z,6.97
2018-04-01T00:46:10.430Z,6.96
2018-04-01T00:46:36.587Z,7.06
2018-04-01T00:47:02.749Z,7.14
2018-04-01T00:47:28.906Z,7.1
2018-04-01T00:47:55.069Z,7.2
2018-04-01T00:48:21.206Z,7.2
2018-04-01T00:48:47.397Z,7.21
2018-04-01T00:49:13.575Z,7.23
2018-04-01T00:49:39.749Z,7.32
2018-04-01T00:50:05.925Z,7.25
2018-04-01T00:50:32.082Z,7.4
2018-04-01T00:50:58.218Z,7.48
2018-04-01T00:51:24.374Z,7.42
2018-04-01T00:51:50.564Z,7.45
2018-04-01T00:52:16.727Z,7.47
2018-04-01T00:52:42.890Z,7.42
2018-04-01T00:53:09.033Z,7.42
2018-04-01T00:53:35.207Z,7.42
2018-04-01T00:54:01.382Z,7.36
2018-04-01T00:54:27.540Z,7.48
2018-04-01T00:54:53.699Z,7.33
2018-04-01T00:55:19.851Z,7.31
2018-04-01T00:55:46.025Z,7.4
2018-04-01T00:56:12.248Z,7.48
2018-04-01T00:56:38.423Z,7.43
2018-04-01T00:57:04.613Z,7.48
2018-04-01T00:57:30.762Z,7.53
2018-04-01T00:57:56.909Z,7.56
2018-04-01T00:58:23.062Z,7.58
2018-04-01T00:58:49.210Z,7.61
2018-04-01T00:59:15.370Z,7.66
2018-04-01T00:59:41.522Z,7.61
2018-04-01T01:00:07.712Z,7.67
2018-04-01T01:00:33.873Z,7.72
2018-04-01T01:01:00.034Z,7.7
2018-04-01T01:01:26.171Z,7.82
2018-04-01T01:01:52.331Z,7.77
2018-04-01T01:02:18.484Z,7.83
2018-04-01T01:02:44.665Z,7.75
2018-04-01T01:03:10.863Z,7.95
2018-04-01T01:03:37.021Z,7.9
2018-04-01T01:04:03.190Z,7.95
2018-04-01T01:04:29.361Z,7.94
2018-04-01T01:04:55.505Z,7.98
2018-04-01T01:05:21.666Z,8.05
2018-04-01T01:05:47.828Z,8.08
2018-04-01T01:06:14.007Z,7.97
2018-04-01T01:06:40.138Z,8.08
2018-04-01T01:07:06.295Z,8.06
2018-04-01T01:07:32.452Z,8.08
2018-04-01T01:07:58.617Z,8.08
2018-04-01T01:08:24.807Z,8.09
2018-04-01T01:08:50.980Z,8.15
2018-04-01T01:09:17.172Z,8.16
2018-04-01T01:09:43.335Z,8.19
2018-04-01T01:10:09.471Z,8.15
2018-04-01T01:10:35.663Z,8.16
2018-04-01T01:11:01.824Z,8.16
2018-04-01T01:11:28.006Z,8.15
2018-04-01T01:11:54.171Z,8.13
2018-04-01T01:12:20.391Z,8.18
2018-04-01T01:12:46.578Z,8.12
2018-04-01T01:13:12.731Z,8.16
2018-04-01T01:13:38.929Z,8.19
2018-04-01T01:14:05.090Z,8.16
2018-04-01T01:14:31.227Z,8.19
2018-04-01T01:14:57.409Z,8.18
2018-04-01T01:15:23.569Z,8.16
2018-04-01T01:15:49.755Z,8.3
2018-04-01T01:16:15.929Z,8.3
2018-04-01T01:16:42.115Z,8.34
2018-04-01T01:17:08.297Z,8.3
2018-04-01T01:17:34.471Z,8.38
2018-04-01T01:18:00.672Z,8.3
2018-04-01T01:18:26.827Z,8.31
2018-04-01T01:18:52.986Z,8.41
2018-04-01T01:19:19.145Z,8.38
2018-04-01T01:19:45.349Z,8.41
2018-04-01T01:20:11.506Z,8.3
2018-04-01T01:20:37.666Z,8.27
2018-04-01T01:21:03.818Z,8.3
2018-04-01T01:21:30.033Z,8.38
2018-04-01T01:21:56.202Z,8.33
2018-04-01T01:22:22.351Z,8.31
2018-04-01T01:22:48.544Z,8.3
2018-04-01T01:23:14.722Z,8.3
2018-04-01T01:23:40.928Z,8.27
2018-04-01T01:24:07.109Z,8.33
2018-04-01T01:24:33.299Z,8.33
2018-04-01T01:24:59.436Z,8.26
2018-04-01T01:25:25.622Z,8.36
2018-04-01T01:25:51.785Z,8.3
2018-04-01T01:26:17.950Z,8.19
2018-04-01T01:26:44.168Z,8.16
2018-04-01T01:27:10.331Z,8.23
2018-04-01T01:27:36.543Z,8.19
2018-04-01T01:28:02.770Z,8.18
2018-04-01T01:28:28.989Z,8.18
2018-04-01T01:28:55.121Z,8.16
2018-04-01T01:29:21.291Z,8.16
2018-04-01T01:29:47.485Z,8.18
2018-04-01T01:30:13.649Z,8.15
2018-04-01T01:30:39.793Z,8.15
2018-04-01T01:31:05.949Z,8.16
2018-04-01T01:31:32.124Z,8.18
2018-04-01T01:31:58.278Z,8.16
2018-04-01T01:32:24.450Z,8.18
2018-04-01T01:32:50.609Z,8.16
2018-04-01T01:33:16.812Z,8.24
2018-04-01T01:33:42.987Z,8.3
2018-04-01T01:34:09.141Z,8.28
2018-04-01T01:34:35.296Z,8.3
2018-04-01T01:35:01.461Z,8.3
2018-04-01T01:35:27.604Z,8.3
2018-04-01T01:35:53.762Z,8.34
2018-04-01T01:36:19.985Z,8.34
2018-04-01T01:36:46.153Z,8.27
2018-04-01T01:37:12.301Z,8.28
2018-04-01T01:37:38.495Z,8.26
2018-04-01T01:38:04.651Z,8.2
2018-04-01T01:38:30.810Z,8.23
2018-04-01T01:38:57.050Z,8.15
2018-04-01T01:39:23.202Z,8.18
2018-04-01T01:39:49.372Z,8.1
2018-04-01T01:40:15.551Z,8.09
2018-04-01T01:40:41.725Z,8.1
2018-04-01T01:41:07.917Z,8.09
2018-04-01T01:41:34.103Z,8.09
2018-04-01T01:42:00.301Z,8.03
2018-04-01T01:42:26.474Z,7.98
2018-04-01T01:42:52.637Z,8.1
2018-04-01T01:43:18.776Z,8.12
2018-04-01T01:43:44.959Z,8.18
2018-04-01T01:44:11.156Z,8.13
2018-04-01T01:44:37.323Z,8.1
2018-04-01T01:45:03.460Z,8.12
2018-04-01T01:45:29.631Z,8.19
2018-04-01T01:45:55.796Z,8.27
2018-04-01T01:46:22.070Z,8.28
2018-04-01T01:46:48.202Z,8.3
2018-04-01T01:47:14.392Z,8.24
2018-04-01T01:47:40.571Z,8.2
2018-04-01T01:48:06.738Z,8.23
2018-04-01T01:48:32.916Z,8.1
2018-04-01T01:48:59.094Z,8
2018-04-01T01:49:25.269Z,8.03
2018-04-01T01:49:51.480Z,7.95
2018-04-01T01:50:17.591Z,7.97
2018-04-01T01:50:43.731Z,7.87
2018-04-01T01:51:10.009Z,7.75
2018-04-01T01:51:36.104Z,7.72
2018-04-01T01:52:02.301Z,7.67
2018-04-01T01:52:28.441Z,7.66
2018-04-01T01:52:54.673Z,7.6
2018-04-01T01:53:20.847Z,7.6
2018-04-01T01:53:47.010Z,7.61
2018-04-01T01:54:13.175Z,7.75
2018-04-01T01:54:39.347Z,7.73
2018-04-01T01:55:05.513Z,7.8
2018-04-01T01:55:31.710Z,7.9
2018-04-01T01:55:57.850Z,7.88
2018-04-01T01:56:23.995Z,7.79
2018-04-01T01:56:50.186Z,7.73
2018-04-01T01:57:16.343Z,7.82
2018-04-01T01:57:42.481Z,7.79
2018-04-01T01:58:08.659Z,7.82
2018-04-01T01:58:34.824Z,7.83
2018-04-01T01:59:01.057Z,7.82
2018-04-01T01:59:27.168Z,7.83
2018-04-01T01:59:53.346Z,7.77
2018-04-01T02:00:19.528Z,7.85
2018-04-01T02:00:45.735Z,7.88
2018-04-01T02:01:11.903Z,7.82
2018-04-01T02:01:38.074Z,7.95
2018-04-01T02:02:04.216Z,7.97
2018-04-01T02:02:30.388Z,7.98
2018-04-01T02:02:56.551Z,7.97
2018-04-01T02:03:22.765Z,8.03
2018-04-01T02:03:48.936Z,8.06
2018-04-01T02:04:15.137Z,8.06
2018-04-01T02:04:41.324Z,7.95
2018-04-01T02:05:07.497Z,7.98
2018-04-01T02:05:33.643Z,8.01
2018-04-01T02:05:59.818Z,8
2018-04-01T02:06:26.024Z,7.97
2018-04-01T02:06:52.179Z,7.97
2018-04-01T02:07:18.336Z,7.94
2018-04-01T02:07:44.510Z,7.82
2018-04-01T02:08:10.664Z,7.82
2018-04-01T02:08:36.840Z,7.76
2018-04-01T02:09:03.022Z,7.7
2018-04-01T02:09:29.186Z,7.7
2018-04-01T02:09:55.373Z,7.69
2018-04-01T02:10:21.539Z,7.77
2018-04-01T02:10:47.700Z,7.83
2018-04-01T02:11:13.894Z,7.88
2018-04-01T02:11:40.082Z,7.83
2018-04-01T02:12:06.248Z,7.76
2018-04-01T02:12:32.403Z,7.73
2018-04-01T02:12:58.540Z,7.7
2018-04-01T02:13:24.724Z,7.6
2018-04-01T02:13:50.907Z,7.57
2018-04-01T02:14:17.065Z,7.6
2018-04-01T02:14:43.236Z,7.6
2018-04-01T02:15:09.407Z,7.58
2018-04-01T02:15:35.553Z,7.54
2018-04-01T02:16:01.688Z,7.51
2018-04-01T02:16:27.876Z,7.53
2018-04-01T02:16:54.005Z,7.58
2018-04-01T02:17:20.178Z,7.69
2018-04-01T02:17:46.353Z,7.61
2018-04-01T02:18:12.502Z,7.72
2018-04-01T02:18:38.734Z,7.7
2018-04-01T02:19:04.914Z,7.73
2018-04-01T02:19:31.055Z,7.76
2018-04-01T02:19:57.271Z,7.88
2018-04-01T02:20:23.394Z,7.77
2018-04-01T02:20:49.551Z,7.87
2018-04-01T02:21:15.730Z,7.97
2018-04-01T02:21:41.922Z,7.97
2018-04-01T02:22:08.069Z,7.91
2018-04-01T02:22:34.272Z,7.97
2018-04-01T02:23:00.515Z,7.98
2018-04-01T02:23:26.665Z,8.1
2018-04-01T02:23:52.851Z,8.1
2018-04-01T02:24:19.002Z,8.09
2018-04-01T02:24:45.170Z,8.05
2018-04-01T02:25:11.347Z,8.13
2018-04-01T02:25:37.503Z,8.18
2018-04-01T02:26:03.690Z,8.15
2018-04-01T02:26:29.838Z,8.28
2018-04-01T02:26:55.997Z,8.27
2018-04-01T02:27:22.170Z,8.3
2018-04-01T02:27:48.455Z,8.36
2018-04-01T02:28:14.580Z,8.31
2018-04-01T02:28:40.755Z,8.37
2018-04-01T02:29:06.938Z,8.26
2018-04-01T02:29:33.120Z,8.31
2018-04-01T02:29:59.310Z,8.31
2018-04-01T02:30:25.524Z,8.33
2018-04-01T02:30:51.673Z,8.36
2018-04-01T02:31:17.854Z,8.33
2018-04-01T02:31:44.024Z,8.44
2018-04-01T02:32:10.252Z,8.41
2018-04-01T02:32:36.390Z,8.45
2018-04-01T02:33:02.581Z,8.41
2018-04-01T02:33:28.724Z,8.38
2018-04-01T02:33:54.908Z,8.33
2018-04-01T02:34:21.076Z,8.34
2018-04-01T02:34:47.221Z,8.24
2018-04-01T02:35:13.382Z,8.23
2018-04-01T02:35:39.531Z,8.19
2018-04-01T02:36:05.697Z,8.15
2018-04-01T02:36:31.848Z,8.15
2018-04-01T02:36:58.029Z,8.16
2018-04-01T02:37:24.300Z,8.15
2018-04-01T02:37:50.468Z,8.1
2018-04-01T02:38:16.657Z,7.98
2018-04-01T02:38:42.830Z,8.03
2018-04-01T02:39:08.971Z,7.98
2018-04-01T02:39:35.202Z,7.97
2018-04-01T02:40:01.359Z,8.03
2018-04-01T02:40:27.521Z,7.98
2018-04-01T02:40:53.675Z,7.93
2018-04-01T02:41:19.818Z,7.97
2018-04-01T02:41:45.985Z,7.95
2018-04-01T02:42:12.151Z,7.88
2018-04-01T02:42:38.314Z,7.85
2018-04-01T02:43:04.529Z,7.9
2018-04-01T02:43:30.615Z,7.88
2018-04-01T02:43:56.791Z,7.94
2018-04-01T02:44:22.914Z,7.85
2018-04-01T02:44:49.079Z,7.83
2018-04-01T02:45:15.237Z,7.72
2018-04-01T02:45:41.388Z,7.75
2018-04-01T02:46:07.558Z,7.79
2018-04-01T02:46:33.720Z,7.76
2018-04-01T02:46:59.913Z,7.77
2018-04-01T02:47:26.059Z,7.73
2018-04-01T02:47:52.237Z,7.72
2018-04-01T02:48:18.390Z,7.72
2018-04-01T02:48:44.530Z,7.7
2018-04-01T02:49:10.697Z,7.66
2018-04-01T02:49:36.903Z,7.69
2018-04-01T02:50:03.094Z,7.66
2018-04-01T02:50:29.242Z,7.6
2018-04-01T02:50:55.396Z,7.53
2018-04-01T02:51:21.578Z,7.51
2018-04-01T02:51:47.798Z,7.51
2018-04-01T02:52:13.951Z,7.57
2018-04-01T02:52:40.114Z,7.53
2018-04-01T02:53:06.276Z,7.56
2018-04-01T02:53:32.435Z,7.58
2018-04-01T02:53:58.664Z,7.69
2018-04-01T02:54:24.786Z,7.69
2018-04-01T02:54:50.937Z,7.76
2018-04-01T02:55:17.111Z,7.75
2018-04-01T02:55:43.273Z,7.73
2018-04-01T02:56:09.472Z,7.83
2018-04-01T02:56:35.627Z,7.93
2018-04-01T02:57:01.813Z,7.94
2018-04-01T02:57:28.172Z,8.03
2018-04-01T02:57:54.348Z,8.01
2018-04-01T02:58:20.511Z,7.91
2018-04-01T02:58:46.657Z,7.91
2018-04-01T02:59:12.808Z,7.91
2018-04-01T02:59:38.990Z,7.91
2018-04-01T03:00:05.128Z,7.95
2018-04-01T03:00:31.317Z,7.93
2018-04-01T03:00:57.515Z,8.01
2018-04-01T03:01:23.721Z,8.09
2018-04-01T03:01:49.882Z,8.15
2018-04-01T03:02:16.031Z,8.16
2018-04-01T03:02:42.176Z,8.19
2018-04-01T03:03:08.314Z,8.26
2018-04-01T03:03:34.497Z,8.26
2018-04-01T03:04:00.653Z,8.28
2018-04-01T03:04:26.810Z,8.36
2018-04-01T03:04:52.980Z,8.28
2018-04-01T03:05:19.217Z,8.16
2018-04-01T03:05:45.355Z,8.23
2018-04-01T03:06:11.554Z,8.18
2018-04-01T03:06:37.704Z,8.15
2018-04-01T03:07:03.854Z,8.1
2018-04-01T03:07:30.020Z,8.15
2018-04-01T03:07:56.179Z,8.16
2018-04-01T03:08:22.360Z,8.16
2018-04-01T03:08:48.512Z,8.23
2018-04-01T03:09:14.674Z,8.15
2018-04-01T03:09:40.808Z,8.06
2018-04-01T03:10:06.953Z,8.13
2018-04-01T03:10:33.107Z,8.1
2018-04-01T03:10:59.316Z,8.08
2018-04-01T03:11:25.477Z,7.98
2018-04-01T03:11:51.649Z,8.03
2018-04-01T03:12:17.832Z,7.9
2018-04-01T03:12:44.013Z,7.91
2018-04-01T03:13:10.161Z,7.85
2018-04-01T03:13:36.324Z,7.83
2018-04-01T03:14:02.558Z,7.9
2018-04-01T03:14:28.673Z,7.88
2018-04-01T03:14:54.840Z,7.91
2018-04-01T03:15:21.004Z,7.79
2018-04-01T03:15:47.159Z,7.82
2018-04-01T03:16:13.330Z,7.87
2018-04-01T03:16:39.492Z,7.75
2018-04-01T03:17:05.690Z,7.88
2018-04-01T03:17:31.868Z,7.83
2018-04-01T03:17:58.053Z,7.97
2018-04-01T03:18:24.423Z,8
2018-04-01T03:18:50.561Z,7.97
2018-04-01T03:19:16.723Z,7.95
2018-04-01T03:19:42.886Z,7.85
2018-04-01T03:20:09.079Z,7.8
2018-04-01T03:20:35.234Z,7.67
2018-04-01T03:21:01.381Z,7.67
2018-04-01T03:21:27.560Z,7.63
2018-04-01T03:21:53.734Z,7.69
2018-04-01T03:22:19.903Z,7.69
2018-04-01T03:22:46.055Z,7.66
2018-04-01T03:23:12.208Z,7.61
2018-04-01T03:23:38.390Z,7.67
2018-04-01T03:24:04.532Z,7.6
2018-04-01T03:24:30.680Z,7.61
2018-04-01T03:24:56.858Z,7.72
2018-04-01T03:25:23.007Z,7.73
2018-04-01T03:25:49.147Z,7.7
2018-04-01T03:26:15.345Z,7.76
2018-04-01T03:26:41.519Z,7.69
2018-04-01T03:27:07.682Z,7.7
2018-04-01T03:27:33.846Z,7.72
2018-04-01T03:28:00.013Z,7.66
2018-04-01T03:28:26.136Z,7.8
2018-04-01T03:28:52.328Z,7.88
2018-04-01T03:29:18.469Z,7.79
2018-04-01T03:29:44.628Z,7.7
2018-04-01T03:30:10.793Z,7.66
2018-04-01T03:30:36.989Z,7.61
2018-04-01T03:31:03.148Z,7.57
2018-04-01T03:31:29.310Z,7.63
2018-04-01T03:31:55.458Z,7.61
2018-04-01T03:32:21.602Z,7.57
2018-04-01T03:32:47.815Z,7.54
2018-04-01T03:33:13.963Z,7.67
2018-04-01T03:33:40.121Z,7.6
2018-04-01T03:34:06.260Z,7.57
2018-04-01T03:34:32.430Z,7.57
2018-04-01T03:34:58.607Z,7.63
2018-04-01T03:35:24.829Z,7.66
2018-04-01T03:35:51.018Z,7.63
2018-04-01T03:36:17.164Z,7.58
2018-04-01T03:36:43.333Z,7.66
2018-04-01T03:37:09.560Z,7.63
2018-04-01T03:37:35.716Z,7.67
2018-04-01T03:38:01.878Z,7.73
2018-04-01T03:38:28.051Z,7.73
2018-04-01T03:38:54.313Z,7.67
2018-04-01T03:39:20.423Z,7.6
2018-04-01T03:39:46.571Z,7.63
2018-04-01T03:40:12.788Z,7.6
2018-04-01T03:40:38.944Z,7.54
2018-04-01T03:41:05.096Z,7.5
2018-04-01T03:41:31.254Z,7.53
2018-04-01T03:41:57.398Z,7.45
2018-04-01T03:42:23.599Z,7.51
2018-04-01T03:42:49.738Z,7.5
2018-04-01T03:43:15.903Z,7.47
2018-04-01T03:43:42.062Z,7.47
2018-04-01T03:44:08.250Z,7.35
2018-04-01T03:44:34.412Z,7.4
2018-04-01T03:45:00.545Z,7.29
2018-04-01T03:45:26.680Z,7.28
2018-04-01T03:45:52.830Z,7.32
2018-04-01T03:46:18.974Z,7.25
2018-04-01T03:46:45.147Z,7.13
2018-04-01T03:47:11.358Z,7.07
2018-04-01T03:47:37.491Z,7.11
2018-04-01T03:48:03.649Z,6.99
2018-04-01T03:48:29.798Z,7.02
2018-04-01T03:48:55.962Z,7.1
2018-04-01T03:49:22.114Z,7.15
2018-04-01T03:49:48.309Z,7.11
2018-04-01T03:50:14.495Z,7.07
2018-04-01T03:50:40.681Z,6.93
2018-04-01T03:51:06.831Z,7
2018-04-01T03:51:33.020Z,6.96
2018-04-01T03:51:59.175Z,6.99
2018-04-01T03:52:25.320Z,6.96
2018-04-01T03:52:51.477Z,6.93
2018-04-01T03:53:17.702Z,6.92
2018-04-01T03:53:43.876Z,6.82
2018-04-01T03:54:10.049Z,6.79
2018-04-01T03:54:36.329Z,6.82
2018-04-01T03:55:02.451Z,6.81
2018-04-01T03:55:28.613Z,6.78
2018-04-01T03:55:54.757Z,6.79
2018-04-01T03:56:20.902Z,6.82
2018-04-01T03:56:47.083Z,6.78
2018-04-01T03:57:13.262Z,6.87
2018-04-01T03:57:39.425Z,6.79
2018-04-01T03:58:05.605Z,6.79
2018-04-01T03:58:31.772Z,6.75
2018-04-01T03:58:57.947Z,6.75
2018-04-01T03:59:24.102Z,6.7
2018-04-01T03:59:50.257Z,6.74
2018-04-01T04:00:16.429Z,6.79
2018-04-01T04:00:42.600Z,6.77
2018-04-01T04:01:08.758Z,6.77
2018-04-01T04:01:34.920Z,6.75
2018-04-01T04:02:01.062Z,6.81
2018-04-01T04:02:27.234Z,6.78
2018-04-01T04:02:53.409Z,6.82
2018-04-01T04:03:19.548Z,6.92
2018-04-01T04:03:45.769Z,6.93
2018-04-01T04:04:11.925Z,6.96
2018-04-01T04:04:38.084Z,7.06
2018-04-01T04:05:04.274Z,7.07
2018-04-01T04:05:30.438Z,7.21
2018-04-01T04:05:56.589Z,7.15
2018-04-01T04:06:22.766Z,7.33
2018-04-01T04:06:48.942Z,7.39
2018-04-01T04:07:15.082Z,7.45
2018-04-01T04:07:41.244Z,7.45
2018-04-01T04:08:07.395Z,7.58
2018-04-01T04:08:33.629Z,7.6
2018-04-01T04:08:59.793Z,7.66
2018-04-01T04:09:25.951Z,7.67
2018-04-01T04:09:52.147Z,7.58
2018-04-01T04:10:18.320Z,7.58
2018-04-01T04:10:44.474Z,7.48
2018-04-01T04:11:10.641Z,7.42
2018-04-01T04:11:36.790Z,7.43
2018-04-01T04:12:02.979Z,7.48
2018-04-01T04:12:29.125Z,7.38
2018-04-01T04:12:55.289Z,7.31
2018-04-01T04:13:21.440Z,7.31
2018-04-01T04:13:47.594Z,7.28
2018-04-01T04:14:13.755Z,7.29
2018-04-01T04:14:39.912Z,7.29
2018-04-01T04:15:06.069Z,7.31
2018-04-01T04:15:32.228Z,7.28
2018-04-01T04:15:58.386Z,7.28
2018-04-01T04:16:24.545Z,7.32
2018-04-01T04:16:50.699Z,7.28
2018-04-01T04:17:16.883Z,7.17
2018-04-01T04:17:43.039Z,7.24
2018-04-01T04:18:09.233Z,7.21
2018-04-01T04:18:35.414Z,7.14
2018-04-01T04:19:01.592Z,7.18
2018-04-01T04:19:27.738Z,7.06
2018-04-01T04:19:53.913Z,7.06
2018-04-01T04:20:20.058Z,7.1
2018-04-01T04:20:46.191Z,7.1
2018-04-01T04:21:12.331Z,7.11
2018-04-01T04:21:38.531Z,7.15
2018-04-01T04:22:04.695Z,7.21
2018-04-01T04:22:30.868Z,7.17
2018-04-01T04:22:57.056Z,7.29
2018-04-01T04:23:23.198Z,7.31
2018-04-01T04:23:49.370Z,7.35
2018-04-01T04:24:15.514Z,7.43
2018-04-01T04:24:41.693Z,7.39
2018-04-01T04:25:07.848Z,7.47
2018-04-01T04:25:33.998Z,7.47
2018-04-01T04:26:00.142Z,7.47
2018-04-01T04:26:26.324Z,7.4
2018-04-01T04:26:52.451Z,7.39
2018-04-01T04:27:18.638Z,7.48
2018-04-01T04:27:44.775Z,7.39
2018-04-01T04:28:10.935Z,7.48
2018-04-01T04:28:37.129Z,7.54
2018-04-01T04:29:03.291Z,7.45
2018-04-01T04:29:29.448Z,7.5
2018-04-01T04:29:55.622Z,7.5
2018-04-01T04:30:21.856Z,7.47
2018-04-01T04:30:47.969Z,7.36
2018-04-01T04:31:14.111Z,7.29
2018-04-01T04:31:40.273Z,7.15
2018-04-01T04:32:06.453Z,7.13
2018-04-01T04:32:32.606Z,7.1
2018-04-01T04:32:58.819Z,6.99
2018-04-01T04:33:24.984Z,6.96
2018-04-01T04:33:51.155Z,6.95
2018-04-01T04:34:17.327Z,6.92
2018-04-01T04:34:43.484Z,6.99
2018-04-01T04:35:09.689Z,6.92
2018-04-01T04:35:35.878Z,6.87
2018-04-01T04:36:02.039Z,6.89
2018-04-01T04:36:28.226Z,6.84
2018-04-01T04:36:54.398Z,6.88
2018-04-01T04:37:20.594Z,6.79
2018-04-01T04:37:46.753Z,6.79
2018-04-01T04:38:12.942Z,6.85
2018-04-01T04:38:39.130Z,6.84
2018-04-01T04:39:05.284Z,6.75
2018-04-01T04:39:31.446Z,6.77
2018-04-01T04:39:57.668Z,6.82
2018-04-01T04:40:23.855Z,6.81
2018-04-01T04:40:50.036Z,6.67
2018-04-01T04:41:16.214Z,6.72
2018-04-01T04:41:42.405Z,6.7
2018-04-01T04:42:08.556Z,6.7
2018-04-01T04:42:34.716Z,6.72
2018-04-01T04:43:00.901Z,6.67
2018-04-01T04:43:27.049Z,6.7
2018-04-01T04:43:53.190Z,6.75
2018-04-01T04:44:19.360Z,6.7
2018-04-01T04:44:45.544Z,6.74
2018-04-01T04:45:11.719Z,6.85
2018-04-01T04:45:37.871Z,6.75
2018-04-01T04:46:04.028Z,6.77
2018-04-01T04:46:30.215Z,6.77
2018-04-01T04:46:56.399Z,6.72
2018-04-01T04:47:22.580Z,6.7
2018-04-01T04:47:48.733Z,6.72
2018-04-01T04:48:14.903Z,6.77
2018-04-01T04:48:41.100Z,6.57
2018-04-01T04:49:07.314Z,6.72
2018-04-01T04:49:33.460Z,6.74
2018-04-01T04:49:59.595Z,6.77
2018-04-01T04:50:25.730Z,6.72
2018-04-01T04:50:51.864Z,6.74
2018-04-01T04:51:18.002Z,6.62
2018-04-01T04:51:44.137Z,6.59
2018-04-01T04:52:10.280Z,6.66
2018-04-01T04:52:36.416Z,6.6
2018-04-01T04:53:02.550Z,6.7
2018-04-01T04:53:28.693Z,6.77
2018-04-01T04:53:54.826Z,6.84
2018-04-01T04:54:20.989Z,6.84
2018-04-01T04:54:47.130Z,6.79
2018-04-01T04:55:13.278Z,6.79
2018-04-01T04:55:39.408Z,6.82
2018-04-01T04:56:05.547Z,6.75
2018-04-01T04:56:31.712Z,6.81
2018-04-01T04:56:57.833Z,6.7
2018-04-01T04:57:23.967Z,6.64
2018-04-01T04:57:50.109Z,6.75
2018-04-01T04:58:16.243Z,6.62
2018-04-01T04:58:42.384Z,6.6
2018-04-01T04:59:08.519Z,6.6
2018-04-01T04:59:34.662Z,6.63
2018-04-01T05:00:00.790Z,6.56
2018-04-01T05:00:26.938Z,6.6
2018-04-01T05:00:53.060Z,6.64
2018-04-01T05:01:19.196Z,6.51
2018-04-01T05:01:45.333Z,6.52
2018-04-01T05:02:11.470Z,6.48
2018-04-01T05:02:37.628Z,6.49
2018-04-01T05:03:03.762Z,6.39
2018-04-01T05:03:29.903Z,6.44
2018-04-01T05:03:56.042Z,6.52
2018-04-01T05:04:22.181Z,6.44
2018-04-01T05:04:48.320Z,6.41
2018-04-01T05:05:14.458Z,6.39
2018-04-01T05:05:40.638Z,6.39
2018-04-01T05:06:06.797Z,6.36
2018-04-01T05:06:32.936Z,6.28
2018-04-01T05:06:59.082Z,6.39
2018-04-01T05:07:25.203Z,6.27
2018-04-01T05:07:51.342Z,6.35
2018-04-01T05:08:17.485Z,6.45
2018-04-01T05:08:43.619Z,6.31
2018-04-01T05:09:09.751Z,6.39
2018-04-01T05:09:35.893Z,6.33
2018-04-01T05:10:02.053Z,6.36
2018-04-01T05:10:28.181Z,6.36
2018-04-01T05:10:54.321Z,6.39
2018-04-01T05:11:20.462Z,6.45
2018-04-01T05:11:46.604Z,6.51
2018-04-01T05:12:12.757Z,6.54
2018-04-01T05:12:38.891Z,6.62
2018-04-01T05:13:05.026Z,6.56
2018-04-01T05:13:31.167Z,6.7
2018-04-01T05:13:57.298Z,6.64
2018-04-01T05:14:23.434Z,6.59
2018-04-01T05:14:49.563Z,6.7
2018-04-01T05:15:15.721Z,6.75
2018-04-01T05:15:41.853Z,6.67
2018-04-01T05:16:07.993Z,6.59
2018-04-01T05:16:34.128Z,6.59
2018-04-01T05:17:00.266Z,6.57
2018-04-01T05:17:26.406Z,6.6
2018-04-01T05:17:52.541Z,6.7
2018-04-01T05:18:18.675Z,6.7
2018-04-01T05:18:44.837Z,6.77
2018-04-01T05:19:10.971Z,6.78
2018-04-01T05:19:37.104Z,6.72
2018-04-01T05:20:03.243Z,6.7
2018-04-01T05:20:29.386Z,6.72
2018-04-01T05:20:55.518Z,6.67
2018-04-01T05:21:21.653Z,6.67
2018-04-01T05:21:47.792Z,6.74
2018-04-01T05:22:13.928Z,6.74
2018-04-01T05:22:40.063Z,6.79
2018-04-01T05:23:06.199Z,6.79
2018-04-01T05:23:32.329Z,6.87
2018-04-01T05:23:58.470Z,7
2018-04-01T05:24:24.610Z,6.99
2018-04-01T05:24:50.746Z,6.97
2018-04-01T05:25:16.907Z,6.99
2018-04-01T05:25:43.043Z,6.97
2018-04-01T05:26:09.181Z,7
2018-04-01T05:26:35.326Z,6.99
2018-04-01T05:27:01.506Z,6.84
2018-04-01T05:27:27.641Z,6.81
2018-04-01T05:27:53.783Z,6.75
2018-04-01T05:28:19.962Z,6.82
2018-04-01T05:28:46.056Z,6.78
2018-04-01T05:29:12.196Z,6.82
2018-04-01T05:29:38.345Z,6.75
2018-04-01T05:30:04.493Z,6.72
2018-04-01T05:30:30.640Z,6.74
2018-04-01T05:30:56.779Z,6.7
2018-04-01T05:31:22.916Z,6.6
2018-04-01T05:31:49.054Z,6.69
2018-04-01T05:32:15.211Z,6.62
2018-04-01T05:32:41.355Z,6.74
2018-04-01T05:33:07.512Z,6.59
2018-04-01T05:33:33.647Z,6.6
2018-04-01T05:33:59.778Z,6.75
2018-04-01T05:34:25.917Z,6.6
2018-04-01T05:34:52.044Z,6.69
2018-04-01T05:35:18.208Z,6.67
2018-04-01T05:35:44.342Z,6.78
2018-04-01T05:36:10.474Z,6.66
2018-04-01T05:36:36.611Z,6.56
2018-04-01T05:37:02.751Z,6.66
2018-04-01T05:37:28.887Z,6.77
2018-04-01T05:37:55.018Z,6.72
2018-04-01T05:38:21.162Z,6.75
2018-04-01T05:38:47.312Z,6.74
2018-04-01T05:39:13.447Z,6.78
2018-04-01T05:39:39.581Z,6.84
2018-04-01T05:40:05.719Z,6.78
2018-04-01T05:40:31.854Z,6.89
2018-04-01T05:40:58.001Z,6.78
2018-04-01T05:41:24.129Z,6.84
2018-04-01T05:41:50.271Z,6.78
2018-04-01T05:42:16.403Z,6.78
2018-04-01T05:42:42.541Z,6.7
2018-04-01T05:43:08.671Z,6.74
2018-04-01T05:43:34.821Z,6.72
2018-04-01T05:44:00.946Z,6.66
2018-04-01T05:44:27.093Z,6.72
2018-04-01T05:44:53.230Z,6.78
2018-04-01T05:45:19.364Z,6.74
2018-04-01T05:45:45.501Z,6.59
2018-04-01T05:46:11.654Z,6.59
2018-04-01T05:46:37.793Z,6.7
2018-04-01T05:47:03.931Z,6.7
2018-04-01T05:47:30.070Z,6.78
2018-04-01T05:47:56.208Z,6.64
2018-04-01T05:48:22.347Z,6.72
2018-04-01T05:48:48.481Z,6.74
2018-04-01T05:49:14.617Z,6.75
2018-04-01T05:49:40.751Z,6.78
2018-04-01T05:50:06.878Z,6.81